createdAt,value
2023-03-12T00:01:59.746Z,100764.41
2023-03-12T00:04:26.686Z,100764.53
2023-03-12T00:06:53.631Z,100759.22
2023-03-12T00:09:20.490Z,100764.03
2023-03-12T00:11:47.065Z,100765.41
2023-03-12T00:14:13.674Z,100764.38
2023-03-12T00:16:40.432Z,100759.44
2023-03-12T00:19:07.098Z,100751.94
2023-03-12T00:21:33.884Z,100759.88
2023-03-12T00:24:00.462Z,100758.72
2023-03-12T00:26:27.241Z,100755.09
2023-03-12T00:28:53.910Z,100752.50
2023-03-12T00:31:24.288Z,100749.03
2023-03-12T00:33:50.951Z,100742.56
2023-03-12T00:36:19.206Z,100743.28
2023-03-12T00:38:45.788Z,100741.97
2023-03-12T00:41:12.588Z,100742.56
2023-03-12T00:43:39.358Z,100738.59
2023-03-12T00:46:06.046Z,100748.91
2023-03-12T00:48:32.628Z,100733.66
2023-03-12T00:50:59.241Z,100739.06
2023-03-12T00:53:26.194Z,100725.50
2023-03-12T00:55:52.900Z,100725.69
2023-03-12T00:58:19.519Z,100727.22
2023-03-12T01:00:46.869Z,100715.88
2023-03-12T01:03:13.957Z,100716.81
2023-03-12T01:05:40.852Z,100713.44
2023-03-12T01:08:09.592Z,100715.88
2023-03-12T01:10:40.668Z,100710.03
2023-03-12T01:13:07.412Z,100714.34
2023-03-12T01:15:34.363Z,100717.97
2023-03-12T01:18:02.319Z,100711.88
2023-03-12T01:20:29.175Z,100713.16
2023-03-12T01:22:55.729Z,100704.28
2023-03-12T01:25:22.355Z,100707.78
2023-03-12T01:27:48.881Z,100703.22
2023-03-12T01:30:15.654Z,100697.16
2023-03-12T01:32:42.266Z,100692.56
2023-03-12T01:35:09.394Z,100691.59
2023-03-12T01:37:35.945Z,100693.63
2023-03-12T01:40:03.489Z,100685.75
2023-03-12T01:42:30.098Z,100681.31
2023-03-12T01:45:02.492Z,100669.16
2023-03-12T01:47:33.981Z,100673.22
2023-03-12T01:50:05.854Z,100669.38
2023-03-12T01:52:36.607Z,100667.53
2023-03-12T01:55:09.490Z,100671.00
2023-03-12T01:57:57.625Z,100671.63
2023-03-12T02:00:27.402Z,100671.94
2023-03-12T02:03:00.493Z,100673.13
2023-03-12T02:05:40.918Z,100678.28
2023-03-12T02:08:07.539Z,100677.47
2023-03-12T02:10:34.179Z,100666.22
2023-03-12T02:13:00.827Z,100666.59
2023-03-12T02:15:27.948Z,100649.97
2023-03-12T02:17:54.566Z,100642.56
2023-03-12T02:20:30.297Z,100640.69
2023-03-12T02:23:08.945Z,100639.25
2023-03-12T02:25:35.441Z,100646.63
2023-03-12T02:28:06.687Z,100646.09
2023-03-12T02:30:35.633Z,100649.03
2023-03-12T02:33:06.410Z,100642.69
2023-03-12T02:35:33.669Z,100649.56
2023-03-12T02:38:00.568Z,100654.16
2023-03-12T02:40:46.191Z,100657.06
2023-03-12T02:43:22.719Z,100661.88
2023-03-12T02:45:49.622Z,100644.09
2023-03-12T02:48:16.208Z,100640.81
2023-03-12T02:50:43.837Z,100633.78
2023-03-12T02:53:10.497Z,100640.94
2023-03-12T02:55:37.049Z,100635.66
2023-03-12T02:58:03.703Z,100626.75
2023-03-12T03:00:32.258Z,100615.19
2023-03-12T03:03:00.206Z,100615.03
2023-03-12T03:05:27.207Z,100609.78
2023-03-12T03:07:53.804Z,100605.22
2023-03-12T03:10:20.503Z,100610.72
2023-03-12T03:12:47.151Z,100610.38
2023-03-12T03:15:14.218Z,100607.19
2023-03-12T03:17:41.031Z,100616.34
2023-03-12T03:20:11.168Z,100607.22
2023-03-12T03:22:39.084Z,100603.47
2023-03-12T03:25:08.533Z,100601.84
2023-03-12T03:27:35.850Z,100597.97
2023-03-12T03:30:03.233Z,100599.94
2023-03-12T03:32:33.025Z,100595.75
2023-03-12T03:35:00.455Z,100603.81
2023-03-12T03:37:27.259Z,100609.56
2023-03-12T03:39:54.310Z,100600.66
2023-03-12T03:42:20.999Z,100603.00
2023-03-12T03:44:47.666Z,100602.78
2023-03-12T03:47:14.618Z,100601.97
2023-03-12T03:49:41.695Z,100601.84
2023-03-12T03:52:14.504Z,100602.41
2023-03-12T03:54:41.038Z,100595.97
2023-03-12T03:57:08.154Z,100594.34
2023-03-12T03:59:34.847Z,100600.88
2023-03-12T04:02:02.243Z,100596.56
2023-03-12T04:04:31.430Z,100595.06
2023-03-12T04:06:58.061Z,100590.25
2023-03-12T04:09:25.053Z,100595.63
2023-03-12T04:11:51.688Z,100590.34
2023-03-12T04:14:18.628Z,100586.88
2023-03-12T04:16:45.509Z,100587.78
2023-03-12T04:19:12.243Z,100583.81
2023-03-12T04:21:39.625Z,100583.94
2023-03-12T04:24:08.390Z,100590.25
2023-03-12T04:26:35.570Z,100589.44
2023-03-12T04:29:04.333Z,100580.44
2023-03-12T04:31:31.210Z,100584.38
2023-03-12T04:33:57.794Z,100576.31
2023-03-12T04:36:24.915Z,100575.50
2023-03-12T04:38:53.020Z,100569.88
2023-03-12T04:41:24.186Z,100571.16
2023-03-12T04:44:19.958Z,100572.00
2023-03-12T04:46:46.847Z,100575.16
2023-03-12T04:49:17.210Z,100574.22
2023-03-12T04:51:43.958Z,100568.84
2023-03-12T04:54:10.612Z,100564.63
2023-03-12T04:56:39.147Z,100566.38
2023-03-12T04:59:05.957Z,100560.41
2023-03-12T05:01:34.803Z,100544.47
2023-03-12T05:04:06.249Z,100547.19
2023-03-12T05:06:33.053Z,100541.34
2023-03-12T05:08:59.966Z,100531.72
2023-03-12T05:11:26.716Z,100525.97
2023-03-12T05:13:53.314Z,100533.16
2023-03-12T05:16:20.610Z,100531.59
2023-03-12T05:18:48.664Z,100509.84
2023-03-12T05:21:18.681Z,100504.56
2023-03-12T05:23:46.389Z,100493.25
2023-03-12T05:26:19.565Z,100483.63
2023-03-12T05:28:46.274Z,100490.06
2023-03-12T05:31:14.589Z,100494.75
2023-03-12T05:33:42.025Z,100500.38
2023-03-12T05:36:10.323Z,100509.97
2023-03-12T05:38:37.577Z,100487.97
2023-03-12T05:41:05.766Z,100492.06
2023-03-12T05:43:35.794Z,100495.47
2023-03-12T05:46:04.780Z,100489.94
2023-03-12T05:48:33.458Z,100475.69
2023-03-12T05:51:00.400Z,100472.03
2023-03-12T05:53:27.551Z,100473.47
2023-03-12T05:55:54.267Z,100464.44
2023-03-12T05:58:21.364Z,100464.19
2023-03-12T06:00:48.810Z,100465.03
2023-03-12T06:03:15.698Z,100457.06
2023-03-12T06:05:44.823Z,100444.44
2023-03-12T06:08:11.423Z,100439.16
2023-03-12T06:10:39.250Z,100439.97
2023-03-12T06:13:07.219Z,100453.44
2023-03-12T06:15:35.035Z,100451.09
2023-03-12T06:18:04.010Z,100450.03
2023-03-12T06:20:31.645Z,100444.31
2023-03-12T06:22:58.191Z,100444.88
2023-03-12T06:25:25.497Z,100448.53
2023-03-12T06:27:52.052Z,100446.91
2023-03-12T06:30:18.782Z,100452.16
2023-03-12T06:32:45.462Z,100440.94
2023-03-12T06:35:12.088Z,100447.94
2023-03-12T06:37:38.644Z,100446.28
2023-03-12T06:40:07.562Z,100449.69
2023-03-12T06:42:34.102Z,100454.28
2023-03-12T06:45:00.709Z,100449.94
2023-03-12T06:47:27.671Z,100457.53
2023-03-12T06:49:54.198Z,100456.72
2023-03-12T06:52:20.779Z,100463.16
2023-03-12T06:54:47.352Z,100467.63
2023-03-12T06:57:13.962Z,100455.56
2023-03-12T06:59:40.530Z,100452.50
2023-03-12T07:02:07.148Z,100458.59
2023-03-12T07:04:33.693Z,100467.00
2023-03-12T07:07:00.316Z,100462.09
2023-03-12T07:09:26.874Z,100458.59
2023-03-12T07:11:53.478Z,100471.81
2023-03-12T07:14:21.366Z,100463.03
2023-03-12T07:16:48.317Z,100463.75
2023-03-12T07:19:14.945Z,100448.19
2023-03-12T07:21:41.527Z,100441.50
2023-03-12T07:24:08.877Z,100436.94
2023-03-12T07:26:36.152Z,100436.13
2023-03-12T07:29:04.228Z,100431.66
2023-03-12T07:31:30.908Z,100440.19
2023-03-12T07:33:57.762Z,100430.72
2023-03-12T07:36:24.753Z,100437.63
2023-03-12T07:38:51.456Z,100430.50
2023-03-12T07:41:18.053Z,100429.66
2023-03-12T07:43:44.729Z,100432.81
2023-03-12T07:46:11.730Z,100434.56
2023-03-12T07:48:38.758Z,100432.44
2023-03-12T07:51:06.585Z,100435.38
2023-03-12T07:53:33.181Z,100435.16
2023-03-12T07:56:00.052Z,100422.97
2023-03-12T07:58:26.830Z,100432.44
2023-03-12T08:00:55.875Z,100431.63
2023-03-12T08:03:22.755Z,100433.03
2023-03-12T08:06:01.388Z,100438.19
2023-03-12T08:08:29.278Z,100446.75
2023-03-12T08:10:55.940Z,100449.31
2023-03-12T08:13:23.896Z,100437.84
2023-03-12T08:15:51.781Z,100437.84
2023-03-12T08:18:19.686Z,100422.25
2023-03-12T08:20:55.717Z,100440.84
2023-03-12T08:23:22.757Z,100442.25
2023-03-12T08:25:50.393Z,100445.41
2023-03-12T08:28:18.315Z,100448.69
2023-03-12T08:30:46.896Z,100443.53
2023-03-12T08:33:13.553Z,100438.13
2023-03-12T08:35:40.594Z,100437.88
2023-03-12T08:38:07.213Z,100439.50
2023-03-12T08:40:33.968Z,100430.03
2023-03-12T08:43:00.971Z,100420.44
2023-03-12T08:45:27.551Z,100425.31
2023-03-12T08:47:54.178Z,100419.13
2023-03-12T08:50:22.298Z,100419.00
2023-03-12T08:52:48.941Z,100417.91
2023-03-12T08:55:15.624Z,100422.03
2023-03-12T08:57:42.334Z,100414.97
2023-03-12T09:00:14.928Z,100423.38
2023-03-12T09:02:44.878Z,100426.78
2023-03-12T09:05:11.768Z,100421.41
2023-03-12T09:07:38.780Z,100421.94
2023-03-12T09:10:06.313Z,100425.38
2023-03-12T09:12:32.918Z,100422.66
2023-03-12T09:15:04.634Z,100429.31
2023-03-12T09:17:31.891Z,100425.78
2023-03-12T09:19:58.532Z,100428.25
2023-03-12T09:22:25.134Z,100424.59
2023-03-12T09:24:51.790Z,100432.09
2023-03-12T09:27:18.852Z,100426.00
2023-03-12T09:29:58.840Z,100424.09
2023-03-12T09:32:27.534Z,100423.28
2023-03-12T09:34:54.469Z,100423.97
2023-03-12T09:37:23.763Z,100424.78
2023-03-12T09:39:51.697Z,100430.66
2023-03-12T09:42:46.894Z,100417.50
2023-03-12T09:45:23.884Z,100421.47
2023-03-12T09:47:57.434Z,100442.78
2023-03-12T09:50:35.495Z,100445.38
2023-03-12T09:53:10.226Z,100430.47
2023-03-12T09:55:42.931Z,100425.75
2023-03-12T09:58:35.315Z,100435.94
2023-03-12T10:01:04.517Z,100442.72
2023-03-12T10:04:07.853Z,100432.03
2023-03-12T10:06:51.665Z,100425.69
2023-03-12T10:09:39.533Z,100429.75
2023-03-12T10:12:27.612Z,100428.72
2023-03-12T10:14:54.162Z,100436.31
2023-03-12T10:18:06.352Z,100434.41
2023-03-12T10:20:33.033Z,100439.56
2023-03-12T10:23:16.738Z,100437.81
2023-03-12T10:25:59.513Z,100442.59
2023-03-12T10:28:37.515Z,100448.00
2023-03-12T10:31:17.008Z,100438.25
2023-03-12T10:33:54.815Z,100443.56
2023-03-12T10:36:27.121Z,100443.88
2023-03-12T10:38:53.731Z,100441.19
2023-03-12T10:41:29.775Z,100444.31
2023-03-12T10:44:01.906Z,100452.50
2023-03-12T10:46:37.412Z,100447.59
2023-03-12T10:49:36.868Z,100455.59
2023-03-12T10:52:16.631Z,100456.47
2023-03-12T10:54:46.083Z,100452.34
2023-03-12T10:57:15.217Z,100459.72
2023-03-12T10:59:45.154Z,100455.00
2023-03-12T11:02:29.496Z,100449.81
2023-03-12T11:04:56.145Z,100454.59
2023-03-12T11:07:31.693Z,100440.34
2023-03-12T11:10:07.168Z,100450.41
2023-03-12T11:12:52.054Z,100444.44
2023-03-12T11:15:20.651Z,100445.13
2023-03-12T11:17:47.602Z,100442.56
2023-03-12T11:20:30.671Z,100447.06
2023-03-12T11:22:57.231Z,100443.38
2023-03-12T11:25:25.575Z,100435.09
2023-03-12T11:27:59.612Z,100430.34
2023-03-12T11:30:38.446Z,100430.09
2023-03-12T11:33:05.459Z,100425.63
2023-03-12T11:35:47.861Z,100438.53
2023-03-12T11:38:26.372Z,100426.28
2023-03-12T11:40:59.465Z,100430.09
2023-03-12T11:43:44.010Z,100431.63
2023-03-12T11:46:42.749Z,100431.34
2023-03-12T11:49:48.581Z,100433.50
2023-03-12T11:52:34.562Z,100433.13
2023-03-12T11:55:25.525Z,100428.63
2023-03-12T11:58:01.956Z,100440.47
2023-03-12T12:00:40.235Z,100435.84
2023-03-12T12:03:45.889Z,100429.59
2023-03-12T12:06:56.972Z,100422.66
2023-03-12T12:09:40.498Z,100420.50
2023-03-12T12:12:51.655Z,100423.59
2023-03-12T12:15:29.994Z,100419.13
2023-03-12T12:18:03.072Z,100420.63
2023-03-12T12:20:55.705Z,100416.81
2023-03-12T12:24:04.133Z,100419.00
2023-03-12T12:26:49.680Z,100419.53
2023-03-12T12:30:14.719Z,100418.72
2023-03-12T12:32:58.835Z,100416.94
2023-03-12T12:35:40.313Z,100417.34
2023-03-12T12:38:35.609Z,100407.28
2023-03-12T12:41:15.418Z,100400.63
2023-03-12T12:43:47.675Z,100396.34
2023-03-12T12:46:19.352Z,100395.09
2023-03-12T12:48:57.472Z,100387.16
2023-03-12T12:51:30.386Z,100392.16
2023-03-12T12:54:34.760Z,100394.03
2023-03-12T12:57:16.269Z,100386.19
2023-03-12T12:59:52.120Z,100371.38
2023-03-12T13:02:27.755Z,100373.13
2023-03-12T13:05:01.262Z,100360.16
2023-03-12T13:07:28.176Z,100362.97
2023-03-12T13:09:57.078Z,100365.13
2023-03-12T13:12:29.722Z,100360.19
2023-03-12T13:14:57.738Z,100362.34
2023-03-12T13:17:33.404Z,100354.91
2023-03-12T13:20:12.005Z,100350.78
2023-03-12T13:23:06.150Z,100356.19
2023-03-12T13:25:40.990Z,100343.06
2023-03-12T13:28:26.391Z,100337.28
2023-03-12T13:30:54.054Z,100342.50
2023-03-12T13:33:39.391Z,100338.34
2023-03-12T13:36:23.342Z,100339.69
2023-03-12T13:38:55.243Z,100340.34
2023-03-12T13:41:41.180Z,100344.34
2023-03-12T13:44:23.038Z,100346.09
2023-03-12T13:47:00.501Z,100327.00
2023-03-12T13:49:34.784Z,100335.28
2023-03-12T13:52:19.810Z,100333.34
2023-03-12T13:54:50.401Z,100327.03
2023-03-12T13:57:55.709Z,100323.47
2023-03-12T14:00:29.141Z,100310.22
2023-03-12T14:03:18.216Z,100310.56
2023-03-12T14:05:59.850Z,100320.09
2023-03-12T14:08:50.815Z,100323.38
2023-03-12T14:11:29.500Z,100319.34
2023-03-12T14:14:33.408Z,100318.53
2023-03-12T14:17:01.975Z,100300.38
2023-03-12T14:19:31.422Z,100304.78
2023-03-12T14:22:03.068Z,100315.31
2023-03-12T14:24:41.442Z,100327.34
2023-03-12T14:27:30.743Z,100322.44
2023-03-12T14:30:22.205Z,100322.59
2023-03-12T14:32:52.409Z,100331.19
2023-03-12T14:35:28.210Z,100332.97
2023-03-12T14:37:58.507Z,100344.00
2023-03-12T14:40:36.703Z,100338.97
2023-03-12T14:43:03.498Z,100344.00
2023-03-12T14:45:30.062Z,100348.56
2023-03-12T14:47:58.384Z,100349.88
2023-03-12T14:50:26.339Z,100357.34
2023-03-12T14:52:53.747Z,100359.94
2023-03-12T14:55:26.092Z,100364.16
2023-03-12T14:58:14.477Z,100362.53
2023-03-12T15:00:43.642Z,100358.03
2023-03-12T15:03:16.556Z,100366.47
2023-03-12T15:05:48.006Z,100356.97
2023-03-12T15:08:15.312Z,100363.13
2023-03-12T15:10:51.266Z,100358.75
2023-03-12T15:13:21.131Z,100369.00
2023-03-12T15:15:50.904Z,100345.47
2023-03-12T15:18:28.704Z,100354.41
2023-03-12T15:20:57.315Z,100361.53
2023-03-12T15:23:25.734Z,100363.50
2023-03-12T15:26:15.835Z,100356.88
2023-03-12T15:28:43.455Z,100360.28
2023-03-12T15:31:14.930Z,100355.59
2023-03-12T15:33:43.488Z,100349.78
2023-03-12T15:36:17.463Z,100360.19
2023-03-12T15:38:54.826Z,100346.03
2023-03-12T15:41:26.422Z,100349.94
2023-03-12T15:43:56.977Z,100354.16
2023-03-12T15:46:26.184Z,100362.47
2023-03-12T15:48:56.199Z,100364.59
2023-03-12T15:51:31.098Z,100368.31
2023-03-12T15:54:21.494Z,100388.28
2023-03-12T15:56:48.031Z,100377.22
2023-03-12T15:59:24.042Z,100376.56
2023-03-12T16:01:56.077Z,100366.69
2023-03-12T16:04:24.501Z,100378.72
2023-03-12T16:06:53.292Z,100385.69
2023-03-12T16:09:24.460Z,100383.25
2023-03-12T16:11:53.530Z,100380.03
2023-03-12T16:14:29.659Z,100381.31
2023-03-12T16:16:56.299Z,100388.28
2023-03-12T16:19:23.723Z,100381.50
2023-03-12T16:21:50.681Z,100389.47
2023-03-12T16:24:17.262Z,100394.03
2023-03-12T16:26:56.677Z,100396.09
2023-03-12T16:29:31.647Z,100396.09
2023-03-12T16:31:58.357Z,100400.31
2023-03-12T16:34:25.168Z,100399.84
2023-03-12T16:36:52.060Z,100392.06
2023-03-12T16:39:19.112Z,100386.19
2023-03-12T16:41:46.512Z,100392.19
2023-03-12T16:44:17.591Z,100388.94
2023-03-12T16:46:45.070Z,100393.97
2023-03-12T16:49:17.254Z,100396.91
2023-03-12T16:51:44.275Z,100389.41
2023-03-12T16:54:12.388Z,100389.41
2023-03-12T16:56:44.637Z,100385.00
2023-03-12T16:59:25.233Z,100380.78
2023-03-12T17:01:51.783Z,100383.38
2023-03-12T17:04:18.337Z,100384.38
2023-03-12T17:06:44.922Z,100382.91
2023-03-12T17:09:11.466Z,100392.50
2023-03-12T17:11:38.903Z,100383.88
2023-03-12T17:14:16.498Z,100387.59
2023-03-12T17:16:43.151Z,100394.41
2023-03-12T17:19:09.729Z,100393.09
2023-03-12T17:21:37.371Z,100387.91
2023-03-12T17:24:04.269Z,100391.44
2023-03-12T17:26:31.052Z,100389.84
2023-03-12T17:28:57.562Z,100390.63
2023-03-12T17:31:24.720Z,100393.56
2023-03-12T17:33:51.421Z,100398.91
2023-03-12T17:36:17.972Z,100402.47
2023-03-12T17:38:44.550Z,100396.44
2023-03-12T17:41:25.622Z,100406.19
2023-03-12T17:43:53.649Z,100411.69
2023-03-12T17:46:20.278Z,100418.66
2023-03-12T17:48:46.927Z,100425.63
2023-03-12T17:51:13.454Z,100433.75
2023-03-12T17:53:41.787Z,100435.53
2023-03-12T17:56:08.622Z,100432.94
2023-03-12T17:58:35.189Z,100432.25
2023-03-12T18:01:01.831Z,100436.78
2023-03-12T18:03:28.587Z,100428.44
2023-03-12T18:05:55.595Z,100436.41
2023-03-12T18:08:22.229Z,100429.41
2023-03-12T18:10:49.379Z,100435.75
2023-03-12T18:13:16.039Z,100446.13
2023-03-12T18:15:42.752Z,100449.53
2023-03-12T18:18:09.282Z,100442.84
2023-03-12T18:20:39.624Z,100433.31
2023-03-12T18:23:07.589Z,100425.66
2023-03-12T18:25:34.132Z,100437.97
2023-03-12T18:28:00.731Z,100436.34
2023-03-12T18:30:28.234Z,100446.06
2023-03-12T18:32:55.031Z,100442.66
2023-03-12T18:35:22.804Z,100442.81
2023-03-12T18:37:51.795Z,100445.41
2023-03-12T18:40:18.361Z,100448.00
2023-03-12T18:42:44.924Z,100442.16
2023-03-12T18:45:12.352Z,100439.72
2023-03-12T18:47:39.556Z,100444.91
2023-03-12T18:50:08.071Z,100431.78
2023-03-12T18:52:35.395Z,100448.44
2023-03-12T18:55:02.024Z,100440.81
2023-03-12T18:57:28.659Z,100426.06
2023-03-12T18:59:55.990Z,100433.84
2023-03-12T19:02:23.711Z,100432.22
2023-03-12T19:04:56.175Z,100421.84
2023-03-12T19:07:25.995Z,100425.41
2023-03-12T19:09:52.584Z,100415.19
2023-03-12T19:12:19.259Z,100416.97
2023-03-12T19:14:45.828Z,100418.72
2023-03-12T19:17:12.428Z,100417.91
2023-03-12T19:19:39.123Z,100424.88
2023-03-12T19:22:05.749Z,100427.47
2023-03-12T19:24:32.360Z,100423.41
2023-03-12T19:26:58.948Z,100424.22
2023-03-12T19:29:25.566Z,100413.19
2023-03-12T19:31:52.258Z,100409.75
2023-03-12T19:34:19.898Z,100409.75
2023-03-12T19:36:46.536Z,100404.56
2023-03-12T19:39:21.016Z,100390.78
2023-03-12T19:41:48.587Z,100403.75
2023-03-12T19:44:15.120Z,100401.16
2023-03-12T19:46:43.200Z,100397.75
2023-03-12T19:49:10.098Z,100381.38
2023-03-12T19:51:36.796Z,100389.31
2023-03-12T19:54:03.557Z,100383.31
2023-03-12T19:56:30.645Z,100384.94
2023-03-12T19:58:57.241Z,100378.94
2023-03-12T20:01:24.829Z,100376.50
2023-03-12T20:03:51.404Z,100375.69
2023-03-12T20:06:18.041Z,100379.22
2023-03-12T20:08:45.587Z,100375.97
2023-03-12T20:11:12.268Z,100359.59
2023-03-12T20:13:38.906Z,100368.50
2023-03-12T20:16:07.518Z,100361.66
2023-03-12T20:18:34.569Z,100358.25
2023-03-12T20:21:01.243Z,100358.25
2023-03-12T20:23:27.894Z,100353.38
2023-03-12T20:25:54.557Z,100356.94
2023-03-12T20:28:21.136Z,100350.94
2023-03-12T20:30:48.527Z,100338.91
2023-03-12T20:33:15.211Z,100340.88
2023-03-12T20:35:41.957Z,100341.03
2023-03-12T20:38:08.569Z,100331.63
2023-03-12T20:40:35.214Z,100336.94
2023-03-12T20:43:04.761Z,100329.47
2023-03-12T20:45:32.640Z,100333.69
2023-03-12T20:47:59.847Z,100330.28
2023-03-12T20:50:27.626Z,100325.38
2023-03-12T20:52:54.324Z,100322.78
2023-03-12T20:55:20.888Z,100316.13
2023-03-12T20:57:47.450Z,100318.88
2023-03-12T21:00:14.312Z,100316.44
2023-03-12T21:02:40.999Z,100312.06
2023-03-12T21:05:10.030Z,100302.81
2023-03-12T21:07:36.672Z,100295.84
2023-03-12T21:10:03.858Z,100295.84
2023-03-12T21:12:30.461Z,100284.81
2023-03-12T21:15:05.973Z,100279.63
2023-03-12T21:17:33.921Z,100278.00
2023-03-12T21:20:01.520Z,100285.09
2023-03-12T21:22:30.356Z,100289.47
2023-03-12T21:24:57.277Z,100289.47
2023-03-12T21:27:24.342Z,100282.00
2023-03-12T21:29:50.910Z,100270.50
2023-03-12T21:32:17.537Z,100267.09
2023-03-12T21:34:44.277Z,100271.63
2023-03-12T21:37:10.842Z,100265.78
2023-03-12T21:39:37.443Z,100273.41
2023-03-12T21:42:04.106Z,100264.16
2023-03-12T21:44:30.655Z,100257.19
2023-03-12T21:46:57.254Z,100255.56
2023-03-12T21:49:23.957Z,100258.00
2023-03-12T21:51:50.550Z,100253.78
2023-03-12T21:54:17.157Z,100260.75
2023-03-12T21:56:43.863Z,100252.69
2023-03-12T21:59:10.759Z,100269.34
2023-03-12T22:01:37.746Z,100260.91
2023-03-12T22:04:05.531Z,100261.72
2023-03-12T22:06:32.535Z,100258.31
2023-03-12T22:08:59.214Z,100256.69
2023-03-12T22:11:25.762Z,100252.47
2023-03-12T22:13:52.333Z,100242.09
2023-03-12T22:16:20.599Z,100243.88
2023-03-12T22:18:47.300Z,100230.91
2023-03-12T22:21:16.687Z,100218.25
2023-03-12T22:23:43.340Z,100226.69
2023-03-12T22:26:10.296Z,100224.09
2023-03-12T22:28:36.797Z,100220.56
2023-03-12T22:31:07.112Z,100202.25
2023-03-12T22:33:38.056Z,100208.53
2023-03-12T22:36:07.580Z,100197.22
2023-03-12T22:38:36.553Z,100191.06
2023-03-12T22:41:16.952Z,100196.25
2023-03-12T22:43:44.101Z,100186.84
2023-03-12T22:46:11.328Z,100172.25
2023-03-12T22:48:38.129Z,100175.34
2023-03-12T22:51:05.697Z,100166.59
2023-03-12T22:53:32.634Z,100162.22
2023-03-12T22:56:00.964Z,100152.81
2023-03-12T22:58:28.573Z,100150.41
2023-03-12T23:01:03.121Z,100147.78
2023-03-12T23:03:30.882Z,100139.50
2023-03-12T23:05:58.087Z,100125.56
2023-03-12T23:08:24.995Z,100121.72
2023-03-12T23:11:00.205Z,100116.53
2023-03-12T23:13:28.416Z,100103.56
2023-03-12T23:15:55.063Z,100101.63
2023-03-12T23:18:21.796Z,100103.41
2023-03-12T23:20:58.569Z,100091.25
2023-03-12T23:23:26.145Z,100082.66
2023-03-12T23:25:54.278Z,100080.56
2023-03-12T23:28:20.938Z,100072.47
2023-03-12T23:31:14.437Z,100066.47
2023-03-12T23:33:41.166Z,100062.09
2023-03-12T23:36:12.079Z,100056.28
2023-03-12T23:38:39.206Z,100047.88
2023-03-12T23:41:12.554Z,100044.28
2023-03-12T23:43:39.622Z,100051.78
2023-03-12T23:46:08.064Z,100043.31
2023-03-12T23:48:36.198Z,100037.66
2023-03-12T23:51:07.057Z,100035.75
2023-03-12T23:53:34.304Z,100025.50
2023-03-12T23:56:02.535Z,100019.38
2023-03-12T23:58:29.399Z,100010.47
